Philadelphia, Pennsylvania
Traffic Map
Current Weather Conditions
Philadelphia, Pennsylvania
Overcast Haze
Overcast
51°
Feels Like: 51°
Wind Chill: 51° Ceiling: 5000
Heat Index: 51° Visibility: 2.5mi
Dew Point: 49° Wind: 3mph
Humidity: 92% Direction: 60° (ENE)
Pressure: 29.92in Gusts: 0mph
Raw Report DataKPHL 280654Z 06003KT 2 1/2SM BR FEW005 BKN050 OVC090 11/09 A2992 RMK AO2 LTG DSNT SE SLP130 LTG DSNT NE-DSNT SE CB DSNT NE-DSNT SE MOV NE T01060094
Traffic Incident Summary
Active as of:
Severity:
Category:
InformationThere was an issue retrieving the traffic information for this location. Please try a different location or try again shortly.
Advertisements
Track Severe Weather on mobile